Garden City, KS

06:51 PM CST on nëntor 23, 2014 (GMT -0600)
N0KQX | Change Station
CLOSE
Current Station
Personal Weather Stations
Location: Garden City, KS
Elevation: 2839 ft
Nearby Weather Stations

Elev 2839 ft 37.97 °N, 100.85 °W | Updated 0 second ago

shumica me re
shumica me re
43.0 °F
Feels Like 38 °F
N
9.0
Era e paqendrueshme Era from VVP
Gusts 9.0 mph

Sot
High -- | Low -- °F
--% Chance of Precip.
Yesterday
High -- | Low -- °F
Precip. -- ne
7:32 AM 5:26 PM
Waxing Crescent, 3% visible
Presioni 29.72 ne
Visioni 10.0 milje
Clouds i kthjellet
Ftohtesia E erses 38 °F
Pika E Veses 16 °F
Lageshtira E ajrit 34%
Rainfall 0.00 ne
Snow Depth Not available.
UV 0 out of 12
Pollen .10 out of 12
Air Quality Not available.
Flu Activity Not available.
METAR KGCK 232354Z 36017G25KT 10SM CLR 07/M11 A2971 RMK AO2 PK WND 35029/2255 SLP063 T00671111 10089 20067 51028

More Conditions Fewer Conditions

Presioni 29.72 ne
Visioni 10.0 milje
Clouds i kthjellet
Ftohtesia E erses 38 °F
Pika E Veses 16 °F
Lageshtira E ajrit 34%
Rainfall 0.00 ne
Snow Depth Not available.
UV 0 out of 12
Pollen .10 out of 12
Air Quality Not available.
Flu Activity Not available.
METAR KGCK 232354Z 36017G25KT 10SM CLR 07/M11 A2971 RMK AO2 PK WND 35029/2255 SLP063 T00671111 10089 20067 51028

More Conditions Fewer Conditions

10-Day Weather Forecast

Almanac

Astronomy

Nov. 23, 2014 Rise Set
Actual Time
Civil Twilight
Nautical Twilight
Astronomical Twilight
Moon
Length Of Visible Light
Length of Day
Tomorrow will be .
, % of the Moon is Illuminated

Today's Extremes

State Highs State Lows

Community

WunderPhotos

Upload Photos

1,773,226 photos uploaded!

WunderBlogs® & News

Nearby

Air Quality

  Air Quality AQ Index Pollutant
Not available.

Snow Depth

Station Depth Elevation

Earthquake Activity

City Distance Mag. Time & Date
Minimum magnitude displayed is 2.5.

Coastal Water Temperatures

Vend Temperatura

Nearby Weather Stations